Time;durP1;ratioP1;P1;durP2;ratioP2;P2;SDS_P1;SDS_P2;PMS_P1;PMS_P2;Temp;Humidity;BMP_temperature;BMP_pressure;BME280_temperature;BME280_humidity;BME280_pressure;Samples;Min_cycle;Max_cycle;Signal;HPM_P1;HPM_P2
2023/05/28 00:01:34;;;;;;;;;;;;;;;11.14;75.03;101029.34;5051555;28;20399;-73
2023/05/28 00:04:56;;;;;;;;;;;;;;;11.09;75.15;101022.63;5050433;28;19923;-73
2023/05/28 00:08:18;;;;;;;;;;;;;;;10.93;75.42;101015.47;5052242;28;19968;-73
2023/05/28 00:11:21;;;;;;;;;;;;;;;10.93;75.24;101018.09;5053056;28;20023;-73
2023/05/28 00:14:24;;;;;;;;;;;;;;;10.87;75.89;101022.75;5048416;28;20444;-73
2023/05/28 00:17:28;;;;;;;;;;;;;;;10.84;75.59;101018.50;5049408;28;20003;-73
2023/05/28 00:20:31;;;;;;;;;;;;;;;10.72;75.81;101016.47;5050196;28;19963;-73
2023/05/28 00:23:33;;;;;;;;;;;;;;;10.64;76.55;101013.34;5051103;28;19919;-73
2023/05/28 00:26:37;;;;;;;;;;;;;;;10.67;76.72;101013.19;5051528;28;19924;-73
2023/05/28 00:29:43;;;;;;;;;;;;;;;10.75;76.57;101015.44;5052674;28;19951;-73
2023/05/28 00:32:47;;;;;;;;;;;;;;;10.63;76.26;101016.88;5038520;28;19974;-73
2023/05/28 00:35:54;;;;;;;;;;;;;;;10.58;76.31;101013.59;5049969;28;19919;-73
2023/05/28 00:38:59;;;;;;;;;;;;;;;10.64;76.12;101010.72;5051558;28;19967;-73
2023/05/28 00:42:03;;;;;;;;;;;;;;;10.56;75.90;101004.97;5035011;28;20292;-73
2023/05/28 00:45:07;;;;;;;;;;;;;;;10.51;76.19;101004.34;5048466;28;19923;-73
2023/05/28 00:48:10;;;;;;;;;;;;;;;10.42;76.34;101002.97;5037098;28;20434;-74
2023/05/28 00:51:14;;;;;;;;;;;;;;;10.41;76.40;101004.75;5050345;28;19934;-73
2023/05/28 00:54:17;;;;;;;;;;;;;;;10.33;77.21;101005.97;5051156;28;19943;-73
2023/05/28 00:57:23;;;;;;;;;;;;;;;10.41;77.11;101004.75;5039726;28;19919;-73
2023/05/28 01:00:26;;;;;;;;;;;;;;;10.34;77.01;101000.72;5041492;28;19928;-73
2023/05/28 01:03:29;;;;;;;;;;;;;;;10.28;77.01;101006.19;5036538;28;19924;-73
2023/05/28 01:06:32;;;;;;;;;;;;;;;10.27;76.67;100996.63;5029490;28;20019;-73
2023/05/28 01:09:36;;;;;;;;;;;;;;;10.11;76.98;100999.03;5018354;28;19925;-73
2023/05/28 01:12:40;;;;;;;;;;;;;;;10.14;77.00;101008.50;5019274;28;20011;-73
2023/05/28 01:15:44;;;;;;;;;;;;;;;10.13;77.40;101001.59;5027157;28;19936;-73
2023/05/28 01:18:48;;;;;;;;;;;;;;;10.14;77.41;101006.75;5027942;28;20002;-73
2023/05/28 01:21:55;;;;;;;;;;;;;;;9.99;77.36;101016.09;5017083;28;20384;-73
2023/05/28 01:25:00;;;;;;;;;;;;;;;9.93;77.48;101010.28;5018586;28;19970;-72
2023/05/28 01:28:13;;;;;;;;;;;;;;;9.91;77.61;101006.88;5014805;28;19920;-72
2023/05/28 01:31:17;;;;;;;;;;;;;;;9.93;77.78;101010.28;5018332;28;20629;-72
2023/05/28 01:34:20;;;;;;;;;;;;;;;9.89;77.61;101013.91;5031166;28;19920;-73
2023/05/28 01:37:24;;;;;;;;;;;;;;;9.86;77.80;101007.06;5026881;28;20491;-72
2023/05/28 01:40:28;;;;;;;;;;;;;;;9.93;77.69;101008.50;5015850;28;19920;-72
2023/05/28 01:43:32;;;;;;;;;;;;;;;9.87;77.58;101006.16;5029106;28;20340;-72
2023/05/28 01:46:36;;;;;;;;;;;;;;;9.86;77.72;101004.47;5019515;28;20492;-72
2023/05/28 01:49:39;;;;;;;;;;;;;;;9.82;77.41;100996.81;5030703;28;20001;-72
2023/05/28 01:52:44;;;;;;;;;;;;;;;9.67;78.13;101003.53;5002871;28;19975;-72
2023/05/28 01:55:46;;;;;;;;;;;;;;;9.58;78.68;101003.91;5027295;28;19924;-72
2023/05/28 01:58:51;;;;;;;;;;;;;;;9.53;78.75;100999.69;5016761;28;19943;-72
2023/05/28 02:01:54;;;;;;;;;;;;;;;9.42;78.75;100993.22;5017354;28;20384;-72
2023/05/28 02:04:58;;;;;;;;;;;;;;;9.44;78.68;100997.44;5033096;28;19947;-72
2023/05/28 02:08:02;;;;;;;;;;;;;;;9.47;78.67;100994.72;5038953;28;19975;-72
2023/05/28 02:11:05;;;;;;;;;;;;;;;9.47;78.63;100997.31;5034326;28;19923;-73
2023/05/28 02:14:09;;;;;;;;;;;;;;;9.46;78.23;100994.78;5047619;28;19958;-72
2023/05/28 02:17:12;;;;;;;;;;;;;;;9.39;78.47;100993.34;5036155;28;19970;-72
2023/05/28 02:20:17;;;;;;;;;;;;;;;9.27;78.75;100992.06;5026290;28;19920;-71
2023/05/28 02:23:20;;;;;;;;;;;;;;;9.31;78.83;100986.63;5038564;28;19959;-73
2023/05/28 02:26:25;;;;;;;;;;;;;;;9.31;78.97;100985.81;5033963;28;20442;-72
2023/05/28 02:29:29;;;;;;;;;;;;;;;9.32;79.00;100990.13;5051392;28;19919;-73
2023/05/28 02:32:32;;;;;;;;;;;;;;;9.33;78.55;100989.22;5028849;28;19919;-73
2023/05/28 02:35:35;;;;;;;;;;;;;;;9.20;78.95;100988.00;5052998;28;19942;-73
2023/05/28 02:38:39;;;;;;;;;;;;;;;9.14;79.00;100985.63;5004952;28;19932;-73
2023/05/28 02:41:44;;;;;;;;;;;;;;;9.11;79.09;100980.53;5004468;28;20332;-73
2023/05/28 02:44:47;;;;;;;;;;;;;;;9.00;79.33;100984.41;5004223;28;19924;-73
2023/05/28 02:47:50;;;;;;;;;;;;;;;8.97;79.71;100981.91;5004358;28;19924;-72
2023/05/28 02:50:57;;;;;;;;;;;;;;;8.90;79.79;100982.19;5004605;28;19920;-73
2023/05/28 02:54:09;;;;;;;;;;;;;;;8.95;79.56;100985.47;5016274;28;19920;-73
2023/05/28 02:57:12;;;;;;;;;;;;;;;8.89;79.92;100983.94;5003892;28;20400;-73
2023/05/28 03:00:15;;;;;;;;;;;;;;;8.84;79.99;100993.72;5004240;28;19920;-72
2023/05/28 03:03:19;;;;;;;;;;;;;;;8.82;79.83;100987.69;5003701;28;20047;-73
2023/05/28 03:06:22;;;;;;;;;;;;;;;8.76;80.44;100988.78;5016371;28;19925;-72
2023/05/28 03:09:30;;;;;;;;;;;;;;;8.75;80.29;100987.09;5004228;28;19959;-73
2023/05/28 03:12:33;;;;;;;;;;;;;;;8.77;80.13;100980.03;5014294;28;19919;-73
2023/05/28 03:15:36;;;;;;;;;;;;;;;8.76;79.96;100987.94;5015161;28;19942;-73
2023/05/28 03:18:39;;;;;;;;;;;;;;;8.73;80.30;100983.69;5015302;28;19924;-73
2023/05/28 03:21:44;;;;;;;;;;;;;;;8.70;80.26;100978.56;5003218;28;19920;-72
2023/05/28 03:24:48;;;;;;;;;;;;;;;8.79;79.83;100978.22;5014137;28;20332;-72
2023/05/28 03:27:54;;;;;;;;;;;;;;;8.72;79.83;100981.13;5002645;28;19919;-72
2023/05/28 03:30:58;;;;;;;;;;;;;;;8.61;80.25;100986.72;5002919;28;19920;-72
2023/05/28 03:34:02;;;;;;;;;;;;;;;8.57;80.44;100983.38;5003484;28;19920;-73
2023/05/28 03:37:05;;;;;;;;;;;;;;;8.54;80.37;100991.31;5003486;28;19920;-73
2023/05/28 03:40:09;;;;;;;;;;;;;;;8.59;80.38;100981.59;5013741;28;20028;-72
2023/05/28 03:43:13;;;;;;;;;;;;;;;8.59;80.10;100976.38;5002598;28;20072;-73
2023/05/28 03:46:17;;;;;;;;;;;;;;;8.58;80.34;100989.44;5002429;28;19924;-73
2023/05/28 03:49:20;;;;;;;;;;;;;;;8.54;80.46;100990.47;5014571;28;19966;-73
2023/05/28 03:52:23;;;;;;;;;;;;;;;8.57;80.41;100987.75;5003149;28;20279;-73
2023/05/28 03:55:29;;;;;;;;;;;;;;;8.49;80.58;100990.66;5021814;28;19931;-72
2023/05/28 03:58:33;;;;;;;;;;;;;;;8.48;80.77;100993.28;5021901;28;19920;-73
2023/05/28 04:01:37;;;;;;;;;;;;;;;8.56;80.79;100996.50;5021900;28;19983;-73
2023/05/28 04:04:41;;;;;;;;;;;;;;;8.59;80.60;100993.78;5022112;28;19944;-73
2023/05/28 04:07:44;;;;;;;;;;;;;;;8.59;80.83;100991.16;5022537;28;19919;-73
2023/05/28 04:10:47;;;;;;;;;;;;;;;8.51;80.74;100994.03;5021694;28;20001;-73
2023/05/28 04:13:50;;;;;;;;;;;;;;;8.52;81.21;100994.88;5021566;28;20339;-73
2023/05/28 04:16:54;;;;;;;;;;;;;;;8.52;81.30;101000.97;5021465;28;19920;-73
2023/05/28 04:19:58;;;;;;;;;;;;;;;8.53;81.22;101005.25;5034467;28;19967;-72
2023/05/28 04:23:01;;;;;;;;;;;;;;;8.62;80.91;101001.47;5022088;28;19963;-73
2023/05/28 04:26:07;;;;;;;;;;;;;;;8.64;80.88;101004.03;5021378;28;19924;-72
2023/05/28 04:29:12;;;;;;;;;;;;;;;8.72;80.65;101002.00;5033612;28;19920;-72
2023/05/28 04:32:15;;;;;;;;;;;;;;;8.67;80.56;101006.50;5021156;28;19923;-72
2023/05/28 04:35:18;;;;;;;;;;;;;;;8.61;81.11;101000.63;5021952;28;19919;-72
2023/05/28 04:38:22;;;;;;;;;;;;;;;8.66;81.04;101004.81;5022082;28;19920;-72
2023/05/28 04:41:25;;;;;;;;;;;;;;;8.66;80.86;101008.28;5034064;28;19935;-73
2023/05/28 04:44:30;;;;;;;;;;;;;;;8.68;81.37;101005.59;5020967;28;20011;-72
2023/05/28 04:47:34;;;;;;;;;;;;;;;8.76;81.11;101008.78;5033133;28;19959;-73
2023/05/28 04:50:37;;;;;;;;;;;;;;;8.79;81.23;101003.47;5020362;28;19967;-73
2023/05/28 04:53:39;;;;;;;;;;;;;;;8.86;80.71;101004.94;5033954;28;19966;-73
2023/05/28 04:56:43;;;;;;;;;;;;;;;8.96;80.72;101011.50;5034081;28;19936;-73
2023/05/28 04:59:46;;;;;;;;;;;;;;;9.09;79.08;101004.03;5033739;28;20051;-73
2023/05/28 05:02:52;;;;;;;;;;;;;;;9.23;78.62;101006.16;5021765;28;19920;-73
2023/05/28 05:05:55;;;;;;;;;;;;;;;9.16;78.82;101002.94;5021461;28;19924;-72
2023/05/28 05:08:59;;;;;;;;;;;;;;;9.25;78.56;101001.69;5033805;28;19920;-73
2023/05/28 05:12:02;;;;;;;;;;;;;;;9.32;78.71;101000.56;5032788;28;20393;-73
2023/05/28 05:15:05;;;;;;;;;;;;;;;9.35;79.16;100997.84;5020468;28;19974;-73
2023/05/28 05:18:08;;;;;;;;;;;;;;;9.48;79.30;100992.97;5032597;28;20343;-72
2023/05/28 05:21:12;;;;;;;;;;;;;;;9.58;79.09;100993.44;5033651;28;19920;-73
2023/05/28 05:24:15;;;;;;;;;;;;;;;9.57;78.86;100991.72;5033352;28;19967;-73
2023/05/28 05:27:19;;;;;;;;;;;;;;;9.58;79.68;101003.91;5020463;28;20399;-73
2023/05/28 05:30:23;;;;;;;;;;;;;;;9.68;79.75;101005.22;5020270;28;20056;-73
2023/05/28 05:33:26;;;;;;;;;;;;;;;9.77;79.27;101005.69;5032786;28;19920;-73
2023/05/28 05:36:48;;;;;;;;;;;;;;;9.85;79.63;101007.97;5033164;28;19920;-72
2023/05/28 05:40:00;;;;;;;;;;;;;;;9.92;79.63;101003.34;5020367;28;19963;-72
2023/05/28 05:43:22;;;;;;;;;;;;;;;9.96;79.29;101005.78;5032457;28;19919;-72
2023/05/28 05:46:25;;;;;;;;;;;;;;;10.12;79.15;101000.75;5032183;28;20358;-72
2023/05/28 05:49:29;;;;;;;;;;;;;;;10.21;79.09;100999.47;5021059;28;20332;-72
2023/05/28 05:52:33;;;;;;;;;;;;;;;10.29;79.16;101002.66;5021195;28;19944;-72
2023/05/28 05:55:41;;;;;;;;;;;;;;;10.36;78.89;100998.84;5019814;28;19939;-73
2023/05/28 05:58:44;;;;;;;;;;;;;;;10.46;78.84;100999.28;5009758;28;20004;-73
2023/05/28 06:01:51;;;;;;;;;;;;;;;10.52;78.44;100999.03;5022508;28;19928;-74
2023/05/28 06:04:54;;;;;;;;;;;;;;;10.64;78.17;100992.41;5036936;28;19923;-74
2023/05/28 06:08:36;;;;;;;;;;;;;;;10.79;78.02;100991.72;5037374;28;19920;-73
2023/05/28 06:11:49;;;;;;;;;;;;;;;10.93;77.45;100994.53;5024787;28;19966;-73
2023/05/28 06:14:52;;;;;;;;;;;;;;;11.06;78.21;100999.22;5024724;28;19944;-74
2023/05/28 06:17:56;;;;;;;;;;;;;;;11.24;77.06;100993.13;5024542;28;20043;-74
2023/05/28 06:20:59;;;;;;;;;;;;;;;11.36;76.29;100984.69;5036950;28;19939;-75
2023/05/28 06:24:04;;;;;;;;;;;;;;;11.56;76.61;100982.84;5024580;28;20403;-74
2023/05/28 06:27:08;;;;;;;;;;;;;;;11.73;77.02;100977.63;5024649;28;19924;-74
2023/05/28 06:30:11;;;;;;;;;;;;;;;11.90;75.69;100979.44;5024471;28;19920;-74
2023/05/28 06:33:15;;;;;;;;;;;;;;;12.06;74.95;100982.09;5024325;28;19975;-75
2023/05/28 06:36:18;;;;;;;;;;;;;;;12.12;75.48;100976.56;5024701;28;19920;-75
2023/05/28 06:39:22;;;;;;;;;;;;;;;12.33;77.30;100974.59;5024432;28;19923;-73
2023/05/28 06:42:27;;;;;;;;;;;;;;;12.48;75.85;100972.97;5024337;28;19967;-73
2023/05/28 06:45:45;;;;;;;;;;;;;;;12.60;75.45;100976.69;5024176;28;20014;-74
2023/05/28 06:48:50;;;;;;;;;;;;;;;12.76;74.42;100967.94;5024254;28;20284;-73
2023/05/28 06:51:53;;;;;;;;;;;;;;;12.89;74.14;100967.22;5024187;28;19920;-76
2023/05/28 06:54:57;;;;;;;;;;;;;;;13.06;73.28;100974.19;5023884;28;19920;-77
2023/05/28 06:58:01;;;;;;;;;;;;;;;13.11;71.90;100972.16;5024157;28;20004;-75
2023/05/28 07:01:27;;;;;;;;;;;;;;;13.23;70.81;100964.44;5027189;28;19987;-75
2023/05/28 07:04:37;;;;;;;;;;;;;;;13.36;70.32;100967.25;5023742;28;19923;-73
2023/05/28 07:07:48;;;;;;;;;;;;;;;13.44;68.23;100965.03;5024055;28;20285;-72
2023/05/28 07:10:51;;;;;;;;;;;;;;;13.56;67.81;100974.00;5023670;28;20347;-75
2023/05/28 07:13:55;;;;;;;;;;;;;;;13.63;67.19;100970.09;5022972;28;20415;-73
2023/05/28 07:16:59;;;;;;;;;;;;;;;13.72;66.11;100966.09;5023717;28;19967;-73
2023/05/28 07:20:03;;;;;;;;;;;;;;;13.79;65.83;100964.78;5023513;28;20281;-76
2023/05/28 07:23:21;;;;;;;;;;;;;;;13.91;63.90;100963.19;5023476;28;19920;-75
2023/05/28 07:26:25;;;;;;;;;;;;;;;13.99;64.27;100966.22;5023348;28;19991;-73
2023/05/28 07:29:28;;;;;;;;;;;;;;;14.15;63.48;100966.16;5023350;28;19921;-75
2023/05/28 07:32:31;;;;;;;;;;;;;;;14.21;62.06;100963.16;5023043;28;19936;-73
2023/05/28 07:35:35;;;;;;;;;;;;;;;14.28;62.49;100963.63;5023124;28;20459;-75
2023/05/28 07:38:38;;;;;;;;;;;;;;;14.36;62.18;100967.50;5023027;28;20428;-75
2023/05/28 07:41:43;;;;;;;;;;;;;;;14.45;62.01;100968.69;5035357;28;20460;-75
2023/05/28 07:44:55;;;;;;;;;;;;;;;14.67;62.28;100968.25;5022799;28;19924;-75
2023/05/28 07:47:58;;;;;;;;;;;;;;;14.71;61.72;100958.38;5022887;28;19920;-75
2023/05/28 07:51:16;;;;;;;;;;;;;;;14.81;61.01;100965.63;5022913;28;20284;-75
2023/05/28 07:54:22;;;;;;;;;;;;;;;14.85;61.13;100961.00;5035068;28;19920;-75
2023/05/28 07:57:25;;;;;;;;;;;;;;;14.86;60.55;100957.41;5023061;28;19959;-75
2023/05/28 08:00:28;;;;;;;;;;;;;;;15.02;59.55;100968.66;5023003;28;20281;-75
2023/05/28 08:03:39;;;;;;;;;;;;;;;15.11;59.89;100957.53;5022518;28;19967;-74
2023/05/28 08:06:43;;;;;;;;;;;;;;;15.27;60.21;100961.81;5022882;28;19924;-75
2023/05/28 08:09:49;;;;;;;;;;;;;;;15.43;60.65;100953.75;5022885;28;19920;-75
2023/05/28 08:12:56;;;;;;;;;;;;;;;15.48;59.71;100959.59;5022573;28;19919;-76
2023/05/28 08:16:01;;;;;;;;;;;;;;;15.52;59.33;100947.88;5034573;28;19920;-76
2023/05/28 08:19:10;;;;;;;;;;;;;;;15.66;60.15;100944.31;5022375;28;19939;-75
2023/05/28 08:22:14;;;;;;;;;;;;;;;15.86;59.91;100943.00;5022296;28;19970;-77
2023/05/28 08:25:17;;;;;;;;;;;;;;;15.96;59.69;100939.66;5021241;28;20006;-75
2023/05/28 08:28:23;;;;;;;;;;;;;;;16.08;58.30;100937.13;5021990;28;20423;-80
2023/05/28 08:31:26;;;;;;;;;;;;;;;16.10;57.83;100933.44;5021993;28;19920;-75
2023/05/28 08:34:42;;;;;;;;;;;;;;;16.30;57.83;100926.75;5022391;28;19966;-76
2023/05/28 08:37:45;;;;;;;;;;;;;;;16.69;60.57;100924.91;5022284;28;19920;-71
2023/05/28 08:41:09;;;;;;;;;;;;;;;16.74;62.56;100920.13;5022307;28;19920;-71
2023/05/28 08:44:12;;;;;;;;;;;;;;;16.81;59.87;100916.13;5021913;28;19920;-70
2023/05/28 08:47:17;;;;;;;;;;;;;;;16.79;61.51;100918.06;5021707;28;19959;-70
2023/05/28 08:50:30;;;;;;;;;;;;;;;16.89;59.96;100908.50;5021819;28;19919;-70
2023/05/28 08:53:48;;;;;;;;;;;;;;;17.16;58.09;100902.97;5020852;28;20412;-72
2023/05/28 08:56:56;;;;;;;;;;;;;;;17.49;56.87;100905.91;5021120;28;20331;-73
2023/05/28 09:00:07;;;;;;;;;;;;;;;17.37;55.46;100908.50;5021817;28;19955;-75
2023/05/28 09:03:14;;;;;;;;;;;;;;;17.49;54.86;100905.91;5021757;28;19920;-77
2023/05/28 09:06:17;;;;;;;;;;;;;;;17.49;54.36;100905.91;5021605;28;20013;-76
2023/05/28 09:09:23;;;;;;;;;;;;;;;17.51;53.66;100898.66;5033779;28;19920;-76
2023/05/28 09:12:29;;;;;;;;;;;;;;;17.63;53.64;100892.47;5021503;28;19923;-76
2023/05/28 09:15:41;;;;;;;;;;;;;;;17.79;52.66;100893.00;5033603;28;19982;-76
2023/05/28 09:18:45;;;;;;;;;;;;;;;17.80;52.15;100884.09;5021681;28;20420;-75
2023/05/28 09:21:52;;;;;;;;;;;;;;;18.23;52.31;100885.22;5021326;28;19928;-75
2023/05/28 09:24:55;;;;;;;;;;;;;;;18.15;52.04;100883.16;5021379;28;20013;-76
2023/05/28 09:28:15;;;;;;;;;;;;;;;18.17;51.32;100885.72;5021269;28;20323;-76
2023/05/28 09:31:20;;;;;;;;;;;;;;;18.00;51.21;100884.38;5033356;28;20348;-77
2023/05/28 09:34:27;;;;;;;;;;;;;;;18.07;51.99;100882.94;5033404;28;20446;-77
2023/05/28 09:37:31;;;;;;;;;;;;;;;18.02;51.37;100877.16;5033072;28;20343;-77
2023/05/28 09:40:38;;;;;;;;;;;;;;;18.43;52.54;100875.69;5033345;28;19924;-76
2023/05/28 09:43:41;;;;;;;;;;;;;;;18.54;51.09;100867.75;5033355;28;19920;-76
2023/05/28 09:46:46;;;;;;;;;;;;;;;18.50;51.21;100866.28;5033019;28;19943;-75
2023/05/28 09:49:49;;;;;;;;;;;;;;;18.76;51.89;100866.88;5033284;28;19959;-81
2023/05/28 09:52:56;;;;;;;;;;;;;;;18.88;51.87;100865.03;5033047;28;19920;-74
2023/05/28 09:56:02;;;;;;;;;;;;;;;18.97;50.63;100849.22;5033233;28;19955;-77
2023/05/28 09:59:07;;;;;;;;;;;;;;;19.21;52.20;100853.47;5033233;28;19994;-75
2023/05/28 10:02:33;;;;;;;;;;;;;;;19.10;52.43;100851.69;5033157;28;19966;-73
2023/05/28 10:05:36;;;;;;;;;;;;;;;19.26;53.24;100846.81;5032837;28;19925;-65
2023/05/28 10:08:40;;;;;;;;;;;;;;;19.43;53.65;100841.88;5026067;28;20022;-67
2023/05/28 10:11:47;;;;;;;;;;;;;;;19.48;52.39;100837.03;5026426;28;19960;-66
2023/05/28 10:14:51;;;;;;;;;;;;;;;19.62;54.42;100831.41;5032465;28;20315;-65
2023/05/28 10:17:55;;;;;;;;;;;;;;;19.73;50.00;100834.00;5032528;28;20022;-65
2023/05/28 10:20:58;;;;;;;;;;;;;;;19.85;51.06;100841.91;5032602;28;19921;-66
2023/05/28 10:24:02;;;;;;;;;;;;;;;19.81;48.43;100829.84;5032823;28;19919;-69
2023/05/28 10:27:08;;;;;;;;;;;;;;;19.76;47.37;100829.44;5032904;28;20002;-66
2023/05/28 10:30:15;;;;;;;;;;;;;;;19.85;47.65;100834.78;5020321;28;19955;-66
2023/05/28 10:33:18;;;;;;;;;;;;;;;-144.98;100.00;62585.19;5032991;28;19921;-67
2023/05/28 10:36:21;;;;;;;;;;;;;;;-144.98;100.00;62585.19;5032449;28;19920;-70
2023/05/28 10:39:24;;;;;;;;;;;;;;;-144.98;100.00;62585.19;5032597;28;19924;-71
2023/05/28 10:42:27;;;;;;;;;;;;;;;-144.98;100.00;62585.19;5032628;28;19976;-71
2023/05/28 10:45:34;;;;;;;;;;;;;;;-144.98;100.00;62585.19;5031721;28;19975;-72
2023/05/28 10:48:39;;;;;;;;;;;;;;;-144.98;100.00;62585.19;5033133;28;20285;-72
2023/05/28 10:51:45;;;;;;;;;;;;;;;-144.98;100.00;62585.19;5022819;28;19920;-70
2023/05/28 10:54:51;;;;;;;;;;;;;;;-144.98;100.00;62585.19;5035919;28;19967;-71
2023/05/28 10:58:06;;;;;;;;;;;;;;;-144.98;100.00;62585.19;5036012;28;19919;-70
2023/05/28 11:01:09;;;;;;;;;;;;;;;-144.98;100.00;62585.19;5036154;28;19962;-71
2023/05/28 11:04:12;;;;;;;;;;;;;;;-144.98;100.00;62585.19;5035886;28;19928;-75
2023/05/28 11:07:16;;;;;;;;;;;;;;;-144.98;100.00;62585.19;5035983;28;19954;-76
2023/05/28 11:10:19;;;;;;;;;;;;;;;-144.98;100.00;62585.19;5035742;28;19928;-76
2023/05/28 11:13:25;;;;;;;;;;;;;;;-144.98;100.00;62585.19;5035845;28;19983;-66
2023/05/28 11:16:31;;;;;;;;;;;;;;;-144.98;100.00;62585.19;5035568;28;19935;-77
2023/05/28 11:19:41;;;;;;;;;;;;;;;-144.98;100.00;62585.19;5035581;28;19935;-77
2023/05/28 11:22:44;;;;;;;;;;;;;;;-144.98;100.00;62585.19;5035524;28;19975;-79
2023/05/28 11:25:48;;;;;;;;;;;;;;;-144.98;100.00;62585.19;5035813;28;19924;-78
2023/05/28 11:28:51;;;;;;;;;;;;;;;-144.98;100.00;62585.19;5015727;28;20301;-79
2023/05/28 11:31:55;;;;;;;;;;;;;;;-144.98;100.00;62585.19;5015669;28;19919;-79
2023/05/28 11:34:58;;;;;;;;;;;;;;;-144.98;100.00;62585.19;5015811;28;20040;-77
2023/05/28 11:38:03;;;;;;;;;;;;;;;-144.98;100.00;62585.19;5015625;28;19960;-79
2023/05/28 11:41:06;;;;;;;;;;;;;;;-144.98;100.00;62585.19;5015645;28;20004;-78
2023/05/28 11:44:20;;;;;;;;;;;;;;;-144.98;100.00;62585.19;5015973;28;19936;-79
2023/05/28 11:47:24;;;;;;;;;;;;;;;-144.98;100.00;62585.19;5015469;28;19979;-78
2023/05/28 11:50:27;;;;;;;;;;;;;;;-144.98;100.00;62585.19;5015504;28;20288;-78
2023/05/28 11:53:40;;;;;;;;;;;;;;;-144.98;100.00;62585.19;5015461;28;19936;-79
2023/05/28 11:56:43;;;;;;;;;;;;;;;-144.98;100.00;62585.19;5003582;28;19968;-78
2023/05/28 11:59:58;;;;;;;;;;;;;;;-144.98;100.00;62585.19;5016268;28;19981;-74
2023/05/28 12:03:02;;;;;;;;;;;;;;;-144.98;100.00;62585.19;5015274;28;20005;-78
2023/05/28 12:06:05;;;;;;;;;;;;;;;-144.98;100.00;62585.19;5014855;28;19924;-77
2023/05/28 12:09:41;;;;;;;;;;;;;;;-144.98;100.00;62585.19;5014894;28;19955;-79
2023/05/28 12:12:51;;;;;;;;;;;;;;;-144.98;100.00;62585.19;5014980;28;19919;-77
2023/05/28 12:16:04;;;;;;;;;;;;;;;-144.98;100.00;62585.19;5014698;28;19936;-77
2023/05/28 12:19:13;;;;;;;;;;;;;;;-144.98;100.00;62585.19;5014829;28;20432;-75
2023/05/28 12:22:18;;;;;;;;;;;;;;;-144.98;100.00;62585.19;5014849;28;20376;-76
2023/05/28 12:25:21;;;;;;;;;;;;;;;-144.98;100.00;62585.19;5014828;28;20388;-77
2023/05/28 12:28:24;;;;;;;;;;;;;;;-144.98;100.00;62585.19;5014597;28;19923;-76
2023/05/28 12:31:34;;;;;;;;;;;;;;;-144.98;100.00;62585.19;5014556;28;20277;-76
2023/05/28 12:34:37;;;;;;;;;;;;;;;-144.98;100.00;62585.19;5014529;28;19919;-78
2023/05/28 12:37:40;;;;;;;;;;;;;;;-144.98;100.00;62585.19;5014944;28;19963;-75
2023/05/28 12:40:43;;;;;;;;;;;;;;;-144.98;100.00;62585.19;5014932;28;19924;-75
2023/05/28 12:43:46;;;;;;;;;;;;;;;-144.98;100.00;62585.19;5014684;28;19921;-76
2023/05/28 12:46:50;;;;;;;;;;;;;;;-144.98;100.00;62585.19;5014158;28;20400;-75
2023/05/28 12:49:53;;;;;;;;;;;;;;;-144.98;100.00;62585.19;5002558;28;19963;-76
2023/05/28 12:52:57;;;;;;;;;;;;;;;-144.98;100.00;62585.19;5013106;28;19919;-76
2023/05/28 12:56:00;;;;;;;;;;;;;;;-144.98;100.00;62585.19;5014124;28;20439;-77
2023/05/28 12:59:04;;;;;;;;;;;;;;;-144.98;100.00;62585.19;5014154;28;19920;-77
2023/05/28 13:02:07;;;;;;;;;;;;;;;-144.98;100.00;62585.19;5013982;28;20480;-76
2023/05/28 13:05:10;;;;;;;;;;;;;;;-144.98;100.00;62585.19;5013847;28;19924;-76
2023/05/28 13:08:13;;;;;;;;;;;;;;;-144.98;100.00;62585.19;5014009;28;20460;-76
2023/05/28 13:11:16;;;;;;;;;;;;;;;-144.98;100.00;62585.19;5001543;28;19928;-76
2023/05/28 13:14:24;;;;;;;;;;;;;;;-144.98;100.00;62585.19;5002394;28;20424;-73
2023/05/28 13:17:26;;;;;;;;;;;;;;;-144.98;100.00;62585.19;5002246;28;19960;-75
2023/05/28 13:20:30;;;;;;;;;;;;;;;-144.98;100.00;62585.19;5013932;28;20392;-74
2023/05/28 13:23:33;;;;;;;;;;;;;;;-144.98;100.00;62585.19;5013881;28;20077;-75
2023/05/28 13:26:36;;;;;;;;;;;;;;;-144.98;100.00;62585.19;5013718;28;20423;-73
2023/05/28 13:29:40;;;;;;;;;;;;;;;-144.98;100.00;62585.19;5013735;28;20016;-73
2023/05/28 13:32:43;;;;;;;;;;;;;;;-144.98;100.00;62585.19;5013974;28;20453;-73
2023/05/28 13:35:46;;;;;;;;;;;;;;;-144.98;100.00;62585.19;5001538;28;19924;-74
2023/05/28 13:38:49;;;;;;;;;;;;;;;-144.98;100.00;62585.19;5008354;28;19919;-75
2023/05/28 13:41:52;;;;;;;;;;;;;;;-144.98;100.00;62585.19;5013591;28;19920;-75
2023/05/28 13:44:56;;;;;;;;;;;;;;;-144.98;100.00;62585.19;5013358;28;20388;-76
2023/05/28 13:52:49;;;;;;;;;;;;;;;-144.98;100.00;62585.19;5013602;28;19913;-77
2023/05/28 13:55:53;;;;;;;;;;;;;;;-144.98;100.00;62585.19;5008618;28;19920;-77
2023/05/28 13:58:56;;;;;;;;;;;;;;;-144.98;100.00;62585.19;5013434;28;19960;-77
2023/05/28 14:01:58;;;;;;;;;;;;;;;-144.98;100.00;62585.19;5013688;28;19968;-78
2023/05/28 14:05:02;;;;;;;;;;;;;;;-144.98;100.00;62585.19;5013069;28;19924;-76
2023/05/28 14:08:06;;;;;;;;;;;;;;;-144.98;100.00;62585.19;5001157;28;19920;-76
2023/05/28 14:11:09;;;;;;;;;;;;;;;-144.98;100.00;62585.19;5013598;28;19966;-77
2023/05/28 14:14:13;;;;;;;;;;;;;;;-144.98;100.00;62585.19;5013318;28;20297;-77
2023/05/28 14:17:16;;;;;;;;;;;;;;;-144.98;100.00;62585.19;5013318;28;19921;-72
2023/05/28 14:20:19;;;;;;;;;;;;;;;-144.98;100.00;62585.19;5012259;28;19959;-76
2023/05/28 14:23:21;;;;;;;;;;;;;;;-144.98;100.00;62585.19;5012454;28;20289;-74
2023/05/28 14:26:25;;;;;;;;;;;;;;;-144.98;100.00;62585.19;5016096;28;20300;-75
2023/05/28 14:29:28;;;;;;;;;;;;;;;-144.98;100.00;62585.19;5016618;28;19948;-76
2023/05/28 14:32:31;;;;;;;;;;;;;;;-144.98;100.00;62585.19;5016358;28;20281;-76
2023/05/28 14:35:33;;;;;;;;;;;;;;;-144.98;100.00;62585.19;5016618;28;19982;-74
2023/05/28 14:38:36;;;;;;;;;;;;;;;-144.98;100.00;62585.19;5016896;28;19991;-74
2023/05/28 14:41:39;;;;;;;;;;;;;;;-144.98;100.00;62585.19;5016986;28;19970;-75
2023/05/28 14:44:42;;;;;;;;;;;;;;;-144.98;100.00;62585.19;5004518;28;20300;-74
2023/05/28 14:47:45;;;;;;;;;;;;;;;-144.98;100.00;62585.19;5016698;28;19920;-76
2023/05/28 14:50:48;;;;;;;;;;;;;;;-144.98;100.00;62585.19;5016514;28;20055;-75
2023/05/28 14:53:52;;;;;;;;;;;;;;;-144.98;100.00;62585.19;5016556;28;19930;-76
2023/05/28 14:56:55;;;;;;;;;;;;;;;-144.98;100.00;62585.19;5016767;28;19921;-74
2023/05/28 15:00:06;;;;;;;;;;;;;;;-144.98;100.00;62585.19;5016283;28;19919;-75
2023/05/28 15:03:11;;;;;;;;;;;;;;;-144.98;100.00;62585.19;4993164;28;20293;-78
2023/05/28 15:06:14;;;;;;;;;;;;;;;-144.98;100.00;62585.19;5016079;28;19969;-74
2023/05/28 15:09:18;;;;;;;;;;;;;;;-144.98;100.00;62585.19;5016258;28;19924;-75
2023/05/28 15:12:21;;;;;;;;;;;;;;;-144.98;100.00;62585.19;5004033;28;19944;-74
2023/05/28 15:15:25;;;;;;;;;;;;;;;-144.98;100.00;62585.19;5016040;28;19920;-74
2023/05/28 15:18:29;;;;;;;;;;;;;;;-144.98;100.00;62585.19;5016118;28;19921;-75
2023/05/28 15:21:33;;;;;;;;;;;;;;;-144.98;100.00;62585.19;5016041;28;19925;-74
2023/05/28 15:24:36;;;;;;;;;;;;;;;-144.98;100.00;62585.19;5016139;28;19920;-73
2023/05/28 15:27:40;;;;;;;;;;;;;;;-144.98;100.00;62585.19;5016268;28;20350;-74
2023/05/28 15:30:43;;;;;;;;;;;;;;;-144.98;100.00;62585.19;5015841;28;19921;-73
2023/05/28 15:33:46;;;;;;;;;;;;;;;-144.98;100.00;62585.19;5015775;28;19924;-73
2023/05/28 15:36:49;;;;;;;;;;;;;;;-144.98;100.00;62585.19;5010532;28;19935;-73
2023/05/28 15:39:52;;;;;;;;;;;;;;;-144.98;100.00;62585.19;5015543;28;19920;-73
2023/05/28 15:42:58;;;;;;;;;;;;;;;-144.98;100.00;62585.19;5011119;28;19920;-73
2023/05/28 15:46:04;;;;;;;;;;;;;;;-144.98;100.00;62585.19;5003207;28;19940;-73
2023/05/28 15:49:07;;;;;;;;;;;;;;;-144.98;100.00;62585.19;5015225;28;20016;-73
2023/05/28 15:52:10;;;;;;;;;;;;;;;-144.98;100.00;62585.19;5015400;28;19999;-73